| time (UTC) | temp C | wind direction | speed KPH | gust KPH | rain 1hr cm | rain 24hr cm | rain mn cm | humidity % | barometer mb |
| 20260506165111 | 13 | 5 | 4.8 | 14.5 | 0.53 | 2.39 | 2.03 | 90 | 1004.3 |
| 20260506164111 | 14 | 5 | 1.6 | 12.9 | 0.51 | 2.34 | 2.01 | 90 | 1004.2 |
| 20260506163110 | 14 | 22 | 6.4 | 16.1 | 0.43 | 2.24 | 1.91 | 89 | 1004.0 |
| 20260506162111 | 15 | 47 | 8.0 | 16.1 | 0.30 | 2.03 | 1.68 | 88 | 1004.2 |
| 20260506161111 | 15 | 63 | 3.2 | 14.5 | 0.15 | 1.85 | 1.52 | 87 | 1004.1 |
| 20260506160111 | 15 | 342 | 4.8 | 12.9 | 0.15 | 1.83 | 1.50 | 87 | 1003.8 |
| 20260506155111 | 16 | 23 | 4.8 | 16.1 | 0.15 | 1.83 | 1.50 | 87 | 1003.8 |
| 20260506154111 | 16 | 87 | 3.2 | 11.3 | 0.13 | 1.83 | 1.47 | 86 | 1003.7 |
| 20260506153111 | 16 | 28 | 6.4 | 12.9 | 0.13 | 1.83 | 1.47 | 84 | 1003.6 |
| 20260506152111 | 17 | 26 | 3.2 | 9.7 | 0.03 | 1.73 | 1.37 | 82 | 1003.7 |
| 20260506151110 | 17 | 26 | 3.2 | 12.9 | 0.00 | 1.70 | 1.37 | 79 | 1003.7 |
| 20260506150111 | 18 | 40 | 6.4 | 14.5 | 0.00 | 1.70 | 1.37 | 77 | 1003.7 |
| 20260506145111 | 18 | 61 | 1.6 | 11.3 | 0.00 | 1.70 | 1.37 | 77 | 1003.7 |
| 20260506144110 | 18 | 345 | 8.0 | 14.5 | 0.00 | 1.70 | 1.37 | 77 | 1003.8 |
| 20260506143112 | 18 | 5 | 8.0 | 16.1 | 0.00 | 1.70 | 1.37 | 78 | 1003.8 |
| 20260506142111 | 18 | 22 | 8.0 | 17.7 | 0.00 | 1.70 | 1.37 | 77 | 1003.7 |
| 20260506141111 | 20 | 36 | 6.4 | 16.1 | 0.00 | 1.70 | 1.37 | 71 | 1003.9 |
| 20260506140111 | 21 | 341 | 6.4 | 12.9 | 0.00 | 1.70 | 1.37 | 64 | 1004.0 |
| 20260506135111 | 22 | 9 | 0.0 | 9.7 | 0.00 | 1.70 | 1.37 | 60 | 1004.0 |
| 20260506134112 | 21 | 219 | 4.8 | 6.4 | 0.00 | 1.70 | 1.37 | 60 | 1004.2 |
| 20260506133111 | 21 | 292 | 1.6 | 6.4 | 0.00 | 1.70 | 1.37 | 65 | 1004.2 |
| 20260506132111 | 20 | 281 | 0.0 | 0.0 | 0.00 | 1.70 | 1.37 | 65 | 1004.2 |
| 20260506131110 | 20 | 157 | 1.6 | 8.0 | 0.00 | 1.70 | 1.37 | 66 | 1004.3 |
| 20260506130111 | 20 | 219 | 0.0 | 0.0 | 0.00 | 1.70 | 1.37 | 70 | 1004.4 |
| 20260506125111 | 19 | 271 | 0.0 | 3.2 | 0.00 | 1.70 | 1.37 | 70 | 1004.3 |
| 20260506124111 | 19 | 248 | 4.8 | 9.7 | 0.00 | 1.70 | 1.37 | 69 | 1004.4 |
| 20260506123111 | 18 | 196 | 3.2 | 11.3 | 0.00 | 1.70 | 1.37 | 70 | 1004.3 |
| 20260506122112 | 18 | 267 | 4.8 | 12.9 | 0.00 | 1.70 | 1.37 | 72 | 1004.2 |
| 20260506121110 | 19 | 196 | 1.6 | 9.7 | 0.00 | 1.70 | 1.37 | 72 | 1004.3 |
| 20260506120111 | 19 | 205 | 3.2 | 9.7 | 0.00 | 1.70 | 1.37 | 71 | 1004.2 |
| 20260506115111 | 19 | 262 | 1.6 | 8.0 | 0.00 | 1.70 | 1.37 | 73 | 1004.2 |
| 20260506114111 | 18 | 45 | 0.0 | 0.0 | 0.00 | 1.70 | 1.37 | 76 | 1004.1 |
| 20260506113112 | 18 | 288 | 0.0 | 0.0 | 0.00 | 1.70 | 1.37 | 78 | 1004.2 |
| 20260506112111 | 18 | 271 | 0.0 | 0.0 | 0.00 | 1.70 | 1.37 | 77 | 1004.2 |
| 20260506111111 | 17 | 288 | 0.0 | 0.0 | 0.00 | 1.70 | 1.37 | 80 | 1004.4 |
| 20260506110110 | 17 | 256 | 0.0 | 0.0 | 0.00 | 1.70 | 1.37 | 80 | 1004.5 |
| 20260506105111 | 17 | 251 | 0.0 | 0.0 | 0.00 | 1.70 | 1.37 | 79 | 1004.5 |
| 20260506104110 | 17 | 250 | 0.0 | 0.0 | 0.00 | 1.70 | 1.37 | 80 | 1004.6 |
| 20260506103111 | 17 | 251 | 0.0 | 0.0 | 0.00 | 1.70 | 1.37 | 81 | 1004.6 |
| 20260506102111 | 16 | 250 | 0.0 | 0.0 | 0.00 | 1.70 | 1.37 | 81 | 1004.6 |
| 20260506101110 | 16 | 252 | 0.0 | 0.0 | 0.00 | 1.70 | 1.37 | 83 | 1004.5 |
| 20260506100111 | 16 | 252 | 0.0 | 0.0 | 0.00 | 1.70 | 1.37 | 84 | 1004.5 |
| 20260506095111 | 15 | 250 | 1.6 | 4.8 | 0.00 | 1.70 | 1.37 | 86 | 1004.3 |
| 20260506094111 | 15 | 278 | 1.6 | 3.2 | 0.00 | 1.70 | 1.37 | 86 | 1004.3 |
| 20260506093111 | 15 | 277 | 1.6 | 6.4 | 0.00 | 1.70 | 1.37 | 89 | 1004.2 |
| 20260506092111 | 15 | 75 | 0.0 | 0.0 | 0.00 | 1.70 | 1.37 | 91 | 1004.3 |
| 20260506091110 | 14 | 76 | 0.0 | 3.2 | 0.00 | 1.70 | 1.37 | 92 | 1004.2 |
| 20260506090111 | 13 | 40 | 3.2 | 6.4 | 0.00 | 1.70 | 1.37 | 92 | 1004.2 |
| 20260506085111 | 13 | 41 | 0.0 | 0.0 | 0.00 | 1.70 | 1.37 | 92 | 1004.1 |
| 20260506084111 | 12 | 41 | 0.0 | 0.0 | 0.00 | 1.70 | 1.37 | 92 | 1004.2 |
| 20260506083111 | 12 | 38 | 0.0 | 0.0 | 0.00 | 1.70 | 1.37 | 92 | 1004.2 |
| 20260506082110 | 12 | 37 | 0.0 | 0.0 | 0.00 | 1.70 | 1.37 | 92 | 1004.1 |
| 20260506081110 | 12 | 36 | 0.0 | 0.0 | 0.00 | 1.70 | 1.37 | 92 | 1004.0 |
| 20260506080110 | 12 | 34 | 0.0 | 0.0 | 0.00 | 1.70 | 1.37 | 92 | 1004.0 |
| 20260506073111 | 12 | 33 | 0.0 | 0.0 | 0.03 | 1.70 | 1.37 | 91 | 1004.0 |
| 20260506072111 | 12 | 32 | 0.0 | 0.0 | 0.03 | 1.70 | 1.37 | 91 | 1004.0 |
| 20260506071110 | 12 | 33 | 0.0 | 0.0 | 0.03 | 1.70 | 1.37 | 92 | 1004.0 |
| 20260506070111 | 12 | 24 | 1.6 | 3.2 | 0.03 | 1.70 | 1.37 | 92 | 1004.1 |
| 20260506062111 | 12 | 261 | 0.0 | 0.0 | 0.00 | 1.68 | 1.35 | 92 | 1004.1 |
| 20260506061110 | 12 | 260 | 0.0 | 0.0 | 0.00 | 1.68 | 1.35 | 93 | 1004.1 |
| 20260506060110 | 12 | 260 | 0.0 | 0.0 | 0.00 | 1.68 | 1.35 | 93 | 1004.1 |
| 20260506051111 | 12 | 259 | 0.0 | 4.8 | 0.00 | 1.68 | 1.35 | 93 | 1003.8 |
| 20260506050110 | 12 | 258 | 1.6 | 4.8 | 0.00 | 1.68 | 1.35 | 93 | 1003.8 |
| 20260506045111 | 12 | 254 | 0.0 | 4.8 | 0.00 | 1.68 | 1.35 | 93 | 1003.9 |
| 20260506044111 | 12 | 253 | 0.0 | 0.0 | 0.00 | 1.68 | 1.35 | 93 | 1003.9 |
| 20260506043111 | 11 | 253 | 0.0 | 0.0 | 0.00 | 1.68 | 1.35 | 93 | 1003.9 |
| 20260506042111 | 11 | 253 | 0.0 | 3.2 | 0.00 | 1.68 | 1.35 | 93 | 1003.9 |
| 20260506041111 | 11 | 253 | 0.0 | 4.8 | 0.00 | 1.68 | 1.35 | 93 | 1003.9 |
| 20260506040110 | 11 | 264 | 3.2 | 4.8 | 0.00 | 1.68 | 1.35 | 93 | 1003.7 |
| 20260506035111 | 11 | 284 | 0.0 | 0.0 | 0.03 | 1.73 | 1.35 | 93 | 1003.6 |
| 20260506034111 | 11 | 284 | 0.0 | 0.0 | 0.05 | 1.73 | 1.35 | 93 | 1003.6 |
| 20260506033111 | 11 | 284 | 0.0 | 0.0 | 0.05 | 1.73 | 1.35 | 93 | 1003.7 |
| 20260506032111 | 11 | 283 | 0.0 | 0.0 | 0.08 | 1.73 | 1.35 | 93 | 1003.7 |
| 20260506031111 | 11 | 284 | 0.0 | 0.0 | 0.10 | 1.73 | 1.35 | 93 | 1003.8 |
| 20260506030111 | 11 | 284 | 0.0 | 4.8 | 0.10 | 1.73 | 1.35 | 93 | 1003.9 |
| 20260506025110 | 11 | 284 | 1.6 | 6.4 | 0.10 | 1.70 | 1.32 | 93 | 1003.9 |
| 20260506024111 | 11 | 270 | 1.6 | 4.8 | 0.10 | 1.68 | 1.30 | 93 | 1003.9 |
| 20260506023111 | 11 | 340 | 3.2 | 6.4 | 0.10 | 1.65 | 1.27 | 92 | 1004.1 |
| 20260506022111 | 12 | 348 | 1.6 | 6.4 | 0.10 | 1.65 | 1.27 | 92 | 1004.0 |
| 20260506021110 | 12 | 299 | 1.6 | 9.7 | 0.10 | 1.63 | 1.24 | 92 | 1004.1 |
| 20260506020110 | 12 | 337 | 4.8 | 12.9 | 0.13 | 1.63 | 1.24 | 93 | 1004.0 |
| 20260506015110 | 12 | 305 | 3.2 | 6.4 | 0.15 | 1.60 | 1.22 | 93 | 1004.2 |
| 20260506014110 | 12 | 322 | 0.0 | 0.0 | 0.20 | 1.57 | 1.19 | 92 | 1004.4 |
| 20260506013110 | 12 | 322 | 0.0 | 0.0 | 0.25 | 1.55 | 1.17 | 92 | 1004.4 |
| 20260506012110 | 12 | 329 | 0.0 | 0.0 | 0.46 | 1.55 | 1.17 | 92 | 1004.5 |
| 20260506011110 | 12 | 329 | 0.0 | 6.4 | 0.61 | 1.52 | 1.14 | 92 | 1004.5 |
| 20260506010110 | 12 | 296 | 3.2 | 8.0 | 0.61 | 1.50 | 1.12 | 92 | 1004.4 |
| 20260506005111 | 12 | 297 | 0.0 | 6.4 | 0.61 | 1.45 | 1.09 | 92 | 1004.4 |
| 20260506004110 | 12 | 290 | 3.2 | 9.7 | 0.61 | 1.37 | 0.99 | 92 | 1004.4 |
| 20260506003111 | 12 | 313 | 4.8 | 11.3 | 0.56 | 1.30 | 0.91 | 92 | 1004.4 |
| 20260506002111 | 12 | 314 | 3.2 | 9.7 | 0.38 | 1.09 | 0.71 | 92 | 1004.5 |
| 20260506001110 | 12 | 290 | 6.4 | 12.9 | 0.25 | 0.91 | 0.53 | 92 | 1004.5 |
| 20260506000110 | 13 | 321 | 4.8 | 9.7 | 0.25 | 0.89 | 0.51 | 92 | 1004.5 |
| 20260505235110 | 13 | 344 | 1.6 | 12.9 | 0.28 | 0.84 | 0.46 | 92 | 1004.7 |
| 20260505234110 | 13 | 313 | 0.0 | 4.8 | 0.28 | 0.79 | 0.41 | 92 | 1004.7 |
| 20260505233111 | 13 | 355 | 1.6 | 6.4 | 0.28 | 0.74 | 0.36 | 92 | 1004.8 |
| 20260505232110 | 13 | 302 | 3.2 | 11.3 | 0.28 | 0.71 | 0.33 | 92 | 1004.7 |
| 20260505231110 | 13 | 360 | 1.6 | 9.7 | 0.25 | 0.66 | 0.28 | 92 | 1004.8 |
| 20260505230110 | 13 | 331 | 3.2 | 12.9 | 0.23 | 0.61 | 0.23 | 92 | 1004.8 |
| 20260505225111 | 13 | 313 | 1.6 | 6.4 | 0.20 | 0.56 | 0.18 | 92 | 1004.8 |
| 20260505224110 | 13 | 348 | 1.6 | 6.4 | 0.18 | 0.51 | 0.13 | 92 | 1004.9 |
| 20260505223110 | 13 | 18 | 3.2 | 9.7 | 0.18 | 0.46 | 0.08 | 92 | 1005.0 |
| 20260505222110 | 13 | 22 | 1.6 | 9.7 | 0.15 | 0.43 | 0.05 | 91 | 1005.1 |
| 20260505221110 | 13 | 322 | 3.2 | 8.0 | 0.18 | 0.41 | 0.03 | 91 | 1005.1 |
| 20260505220110 | 14 | 355 | 1.6 | 6.4 | 0.20 | 0.41 | 0.03 | 91 | 1005.2 |
| 20260505215110 | 14 | 342 | 1.6 | 6.4 | 0.20 | 0.36 | 0.36 | 91 | 1005.4 |
| 20260505214111 | 14 | 341 | 4.8 | 11.3 | 0.18 | 0.33 | 0.33 | 91 | 1005.4 |
| 20260505213111 | 14 | 360 | 3.2 | 11.3 | 0.15 | 0.28 | 0.28 | 91 | 1005.4 |
| 20260505212110 | 14 | 46 | 4.8 | 11.3 | 0.15 | 0.25 | 0.25 | 91 | 1005.4 |
| 20260505211110 | 14 | 26 | 6.4 | 11.3 | 0.15 | 0.23 | 0.23 | 90 | 1005.5 |
| 20260505210121 | 15 | 321 | 3.2 | 8.0 | 0.15 | 0.20 | 0.20 | 90 | 1005.6 |
| 20260505205110 | 15 | 17 | 0.0 | 3.2 | 0.10 | 0.15 | 0.15 | 89 | 1005.7 |
| 20260505204109 | 15 | 15 | 0.0 | 3.2 | 0.08 | 0.15 | 0.15 | 89 | 1005.7 |
| 20260505203110 | 15 | 15 | 1.6 | 4.8 | 0.05 | 0.13 | 0.13 | 89 | 1005.7 |
| 20260505202110 | 15 | 10 | 0.0 | 3.2 | 0.05 | 0.08 | 0.08 | 89 | 1005.7 |
| 20260505201110 | 15 | 57 | 0.0 | 4.8 | 0.05 | 0.08 | 0.08 | 88 | 1005.6 |
| 20260505200111 | 15 | 134 | 0.0 | 3.2 | 0.03 | 0.05 | 0.05 | 88 | 1005.4 |
| 20260505195111 | 15 | 30 | 1.6 | 9.7 | 0.03 | 0.08 | 0.05 | 88 | 1005.3 |
| 20260505194111 | 15 | 340 | 3.2 | 8.0 | 0.03 | 0.08 | 0.05 | 87 | 1005.2 |
| 20260505193111 | 15 | 24 | 1.6 | 9.7 | 0.03 | 0.08 | 0.05 | 87 | 1005.3 |
| 20260505192111 | 15 | 355 | 3.2 | 8.0 | 0.00 | 0.05 | 0.05 | 86 | 1005.1 |
| 20260505191110 | 15 | 344 | 3.2 | 12.9 | 0.00 | 0.05 | 0.05 | 85 | 1005.1 |
| 20260505190110 | 16 | 13 | 4.8 | 12.9 | 0.00 | 0.05 | 0.05 | 84 | 1005.2 |
| 20260505185110 | 16 | 360 | 4.8 | 12.9 | 0.00 | 0.05 | 0.05 | 84 | 1005.2 |
| 20260505184110 | 16 | 30 | 8.0 | 16.1 | 0.00 | 0.05 | 0.05 | 83 | 1005.3 |
| 20260505183111 | 16 | 9 | 6.4 | 16.1 | 0.00 | 0.05 | 0.05 | 82 | 1005.4 |
| 20260505182110 | 16 | 50 | 6.4 | 19.3 | 0.00 | 0.05 | 0.05 | 82 | 1005.3 |
| 20260505181109 | 16 | 50 | 6.4 | 11.3 | 0.00 | 0.05 | 0.05 | 82 | 1005.4 |
| 20260505180109 | 17 | 5 | 6.4 | 19.3 | 0.00 | 0.05 | 0.05 | 81 | 1005.5 |
| 20260505175110 | 17 | 21 | 4.8 | 14.5 | 0.00 | 0.05 | 0.05 | 80 | 1005.5 |
| 20260505174111 | 17 | 360 | 8.0 | 16.1 | 0.00 | 0.05 | 0.05 | 78 | 1005.5 |
| 20260505173110 | 18 | 344 | 6.4 | 14.5 | 0.00 | 0.05 | 0.05 | 77 | 1005.7 |
| 20260505172110 | 18 | 342 | 3.2 | 12.9 | 0.00 | 0.05 | 0.05 | 74 | 1005.8 |
| 20260505171110 | 18 | 71 | 4.8 | 14.5 | 0.00 | 0.05 | 0.05 | 73 | 1005.6 |
| 20260505170109 | 18 | 53 | 8.0 | 14.5 | 0.00 | 0.05 | 0.05 | 73 | 1005.6 |